sensor_id;sensor_type;location;lat;lon;timestamp;pressure;altitude;pressure_sealevel;temperature;humidity
25638;BME280;13496;51.040;13.680;2023-04-01T00:02:52;97988.72;;;17.52;52.62
25638;BME280;13496;51.040;13.680;2023-04-01T00:07:54;97981.28;;;17.49;52.85
25638;BME280;13496;51.040;13.680;2023-04-01T00:12:56;97973.41;;;17.49;52.78
25638;BME280;13496;51.040;13.680;2023-04-01T00:17:57;97981.53;;;17.47;52.44
25638;BME280;13496;51.040;13.680;2023-04-01T00:23:00;97979.69;;;17.48;52.59
25638;BME280;13496;51.040;13.680;2023-04-01T00:28:01;97979.09;;;17.46;52.67
25638;BME280;13496;51.040;13.680;2023-04-01T00:33:03;97985.38;;;17.45;52.64
25638;BME280;13496;51.040;13.680;2023-04-01T00:38:05;97983.78;;;17.44;52.55
25638;BME280;13496;51.040;13.680;2023-04-01T00:43:11;97983.78;;;17.44;52.63
25638;BME280;13496;51.040;13.680;2023-04-01T00:48:21;97986.63;;;17.42;52.66
25638;BME280;13496;51.040;13.680;2023-04-01T00:53:23;97987.41;;;17.42;52.69
25638;BME280;13496;51.040;13.680;2023-04-01T00:58:27;97983.66;;;17.38;52.58
25638;BME280;13496;51.040;13.680;2023-04-01T01:03:30;97983.22;;;17.41;52.39
25638;BME280;13496;51.040;13.680;2023-04-01T01:14:10;97991.50;;;17.38;52.46
25638;BME280;13496;51.040;13.680;2023-04-01T01:30:59;97978.28;;;17.33;52.67
25638;BME280;13496;51.040;13.680;2023-04-01T01:36:06;97978.88;;;17.35;52.63
25638;BME280;13496;51.040;13.680;2023-04-01T01:41:13;97982.50;;;17.34;52.65
25638;BME280;13496;51.040;13.680;2023-04-01T01:46:21;97979.06;;;17.34;52.74
25638;BME280;13496;51.040;13.680;2023-04-01T01:51:24;97981.94;;;17.32;52.73
25638;BME280;13496;51.040;13.680;2023-04-01T01:56:28;97981.94;;;17.32;52.55
25638;BME280;13496;51.040;13.680;2023-04-01T02:01:33;97982.94;;;17.31;52.54
25638;BME280;13496;51.040;13.680;2023-04-01T02:06:59;97977.13;;;17.29;52.49
25638;BME280;13496;51.040;13.680;2023-04-01T02:12:06;97978.16;;;17.28;52.71
25638;BME280;13496;51.040;13.680;2023-04-01T02:17:19;97980.78;;;17.28;52.59
25638;BME280;13496;51.040;13.680;2023-04-01T02:22:24;97975.75;;;17.27;52.46
25638;BME280;13496;51.040;13.680;2023-04-01T02:27:26;97975.19;;;17.25;52.58
25638;BME280;13496;51.040;13.680;2023-04-01T02:32:29;97982.03;;;17.26;52.75
25638;BME280;13496;51.040;13.680;2023-04-01T02:37:32;97992.94;;;17.23;52.79
25638;BME280;13496;51.040;13.680;2023-04-01T02:42:34;97991.91;;;17.24;52.66
25638;BME280;13496;51.040;13.680;2023-04-01T02:47:36;97996.94;;;17.25;52.64
25638;BME280;13496;51.040;13.680;2023-04-01T02:52:37;97997.16;;;17.24;52.41
25638;BME280;13496;51.040;13.680;2023-04-01T02:57:39;97993.97;;;17.22;52.71
25638;BME280;13496;51.040;13.680;2023-04-01T03:02:41;97995.78;;;17.21;52.49
25638;BME280;13496;51.040;13.680;2023-04-01T03:07:43;98004.66;;;17.20;52.60
25638;BME280;13496;51.040;13.680;2023-04-01T03:12:45;98003.88;;;17.20;52.51
25638;BME280;13496;51.040;13.680;2023-04-01T03:17:47;98003.31;;;17.17;52.63
25638;BME280;13496;51.040;13.680;2023-04-01T03:22:49;98006.72;;;17.18;52.56
25638;BME280;13496;51.040;13.680;2023-04-01T03:27:51;98011.16;;;17.17;52.23
25638;BME280;13496;51.040;13.680;2023-04-01T03:32:52;98007.16;;;17.15;52.42
25638;BME280;13496;51.040;13.680;2023-04-01T03:37:54;98015.59;;;17.17;52.49
25638;BME280;13496;51.040;13.680;2023-04-01T03:42:56;98012.16;;;17.16;52.50
25638;BME280;13496;51.040;13.680;2023-04-01T03:47:57;98008.97;;;17.14;52.46
25638;BME280;13496;51.040;13.680;2023-04-01T03:52:59;98022.88;;;17.15;51.86
25638;BME280;13496;51.040;13.680;2023-04-01T03:58:01;98024.91;;;17.13;52.46
25638;BME280;13496;51.040;13.680;2023-04-01T04:03:03;98028.56;;;17.12;52.63
25638;BME280;13496;51.040;13.680;2023-04-01T04:08:09;98026.53;;;17.14;52.71
25638;BME280;13496;51.040;13.680;2023-04-01T04:13:10;98030.16;;;17.13;52.53
25638;BME280;13496;51.040;13.680;2023-04-01T04:18:19;98031.19;;;17.12;52.80
25638;BME280;13496;51.040;13.680;2023-04-01T04:23:21;98040.88;;;17.11;52.64
25638;BME280;13496;51.040;13.680;2023-04-01T04:28:23;98046.34;;;17.10;52.57
25638;BME280;13496;51.040;13.680;2023-04-01T04:33:27;98048.16;;;17.09;52.75
25638;BME280;13496;51.040;13.680;2023-04-01T04:38:29;98050.53;;;17.11;52.43
25638;BME280;13496;51.040;13.680;2023-04-01T04:43:31;98049.94;;;17.09;52.63
25638;BME280;13496;51.040;13.680;2023-04-01T04:48:32;98054.41;;;17.08;52.73
25638;BME280;13496;51.040;13.680;2023-04-01T04:53:34;98058.03;;;17.07;52.39
25638;BME280;13496;51.040;13.680;2023-04-01T04:58:37;98066.94;;;17.06;52.65
25638;BME280;13496;51.040;13.680;2023-04-01T05:03:42;98061.69;;;17.06;52.48
25638;BME280;13496;51.040;13.680;2023-04-01T05:08:44;98070.56;;;17.05;52.44
25638;BME280;13496;51.040;13.680;2023-04-01T05:13:47;98071.38;;;17.06;52.68
25638;BME280;13496;51.040;13.680;2023-04-01T05:18:48;98081.84;;;17.06;52.58
25638;BME280;13496;51.040;13.680;2023-04-01T05:23:50;98082.06;;;17.04;52.10
25638;BME280;13496;51.040;13.680;2023-04-01T05:28:52;98085.47;;;17.05;52.05
25638;BME280;13496;51.040;13.680;2023-04-01T05:33:54;98085.47;;;17.05;52.25
25638;BME280;13496;51.040;13.680;2023-04-01T05:38:56;98085.47;;;17.05;52.03
25638;BME280;13496;51.040;13.680;2023-04-01T05:43:59;98094.97;;;17.06;52.03
25638;BME280;13496;51.040;13.680;2023-04-01T05:49:21;98094.13;;;17.05;52.00
25638;BME280;13496;51.040;13.680;2023-04-01T05:54:25;98100.19;;;17.06;52.41
25638;BME280;13496;51.040;13.680;2023-04-01T05:59:26;98099.75;;;17.09;52.47
25638;BME280;13496;51.040;13.680;2023-04-01T06:04:33;98097.94;;;17.09;52.20
25638;BME280;13496;51.040;13.680;2023-04-01T06:09:36;98099.75;;;17.09;52.37
25638;BME280;13496;51.040;13.680;2023-04-01T06:20:19;98101.50;;;17.15;51.98
25638;BME280;13496;51.040;13.680;2023-04-01T06:41:07;98109.50;;;17.20;51.66
25638;BME280;13496;51.040;13.680;2023-04-01T06:57:55;98115.47;;;17.27;51.55
25638;BME280;13496;51.040;13.680;2023-04-01T07:03:15;98121.50;;;17.28;51.35
25638;BME280;13496;51.040;13.680;2023-04-01T07:08:23;98120.28;;;17.30;51.42
25638;BME280;13496;51.040;13.680;2023-04-01T07:13:55;98128.72;;;17.32;51.85
25638;BME280;13496;51.040;13.680;2023-04-01T07:19:08;98131.91;;;17.34;51.72
25638;BME280;13496;51.040;13.680;2023-04-01T07:24:31;98137.31;;;17.39;51.42
25638;BME280;13496;51.040;13.680;2023-04-01T07:29:39;98137.88;;;17.41;50.96
25638;BME280;13496;51.040;13.680;2023-04-01T07:34:57;98144.50;;;17.44;50.49
25638;BME280;13496;51.040;13.680;2023-04-01T07:50:34;98153.78;;;17.47;50.61
25638;BME280;13496;51.040;13.680;2023-04-01T07:56:02;98148.91;;;17.50;51.15
25638;BME280;13496;51.040;13.680;2023-04-01T08:01:31;98160.31;;;17.56;49.92
25638;BME280;13496;51.040;13.680;2023-04-01T08:06:46;98160.66;;;17.59;50.69
25638;BME280;13496;51.040;13.680;2023-04-01T08:22:51;98172.69;;;17.67;49.76
25638;BME280;13496;51.040;13.680;2023-04-01T08:28:13;98163.94;;;17.73;49.99
25638;BME280;13496;51.040;13.680;2023-04-01T08:38:31;98171.28;;;17.83;49.47
25638;BME280;13496;51.040;13.680;2023-04-01T08:55:36;98179.81;;;17.97;50.02
25638;BME280;13496;51.040;13.680;2023-04-01T09:01:05;98170.47;;;18.01;50.53
25638;BME280;13496;51.040;13.680;2023-04-01T09:12:03;98182.72;;;18.19;51.05
25638;BME280;13496;51.040;13.680;2023-04-01T10:22:56;98214.28;;;18.42;51.13
25638;BME280;13496;51.040;13.680;2023-04-01T11:18:21;98215.09;;;18.84;50.43
25638;BME280;13496;51.040;13.680;2023-04-01T11:29:16;98220.72;;;19.00;49.52
25638;BME280;13496;51.040;13.680;2023-04-01T11:51:08;98226.41;;;19.08;50.39
25638;BME280;13496;51.040;13.680;2023-04-01T11:56:32;98224.81;;;19.19;49.82
25638;BME280;13496;51.040;13.680;2023-04-01T12:01:44;98219.34;;;19.21;49.95
25638;BME280;13496;51.040;13.680;2023-04-01T12:07:14;98214.88;;;19.09;50.06
25638;BME280;13496;51.040;13.680;2023-04-01T12:23:40;98224.81;;;19.07;51.19
25638;BME280;13496;51.040;13.680;2023-04-01T12:34:39;98222.19;;;19.19;50.21
25638;BME280;13496;51.040;13.680;2023-04-01T12:45:37;98221.97;;;19.32;50.26
25638;BME280;13496;51.040;13.680;2023-04-01T12:51:11;98228.91;;;19.39;50.06
25638;BME280;13496;51.040;13.680;2023-04-01T13:02:19;98227.31;;;19.49;50.08
25638;BME280;13496;51.040;13.680;2023-04-01T13:07:41;98235.19;;;19.61;50.46
25638;BME280;13496;51.040;13.680;2023-04-01T13:18:20;98248.13;;;19.39;49.93
25638;BME280;13496;51.040;13.680;2023-04-01T13:28:39;98249.97;;;19.27;50.68
25638;BME280;13496;51.040;13.680;2023-04-01T13:39:48;98255.25;;;19.62;50.05
25638;BME280;13496;51.040;13.680;2023-04-01T13:44:56;98250.53;;;19.64;49.63
25638;BME280;13496;51.040;13.680;2023-04-01T13:50:14;98251.22;;;19.71;49.48
25638;BME280;13496;51.040;13.680;2023-04-01T14:21:46;98262.53;;;19.72;50.07
25638;BME280;13496;51.040;13.680;2023-04-01T14:27:09;98262.16;;;19.80;50.73
25638;BME280;13496;51.040;13.680;2023-04-01T14:32:34;98275.00;;;19.76;50.29
25638;BME280;13496;51.040;13.680;2023-04-01T14:48:32;98283.69;;;19.89;50.63
25638;BME280;13496;51.040;13.680;2023-04-01T14:53:38;98285.28;;;19.90;50.54
25638;BME280;13496;51.040;13.680;2023-04-01T14:58:44;98292.03;;;19.86;50.78
25638;BME280;13496;51.040;13.680;2023-04-01T15:09:13;98294.34;;;19.82;50.44
25638;BME280;13496;51.040;13.680;2023-04-01T15:19:41;98302.09;;;19.89;51.05
25638;BME280;13496;51.040;13.680;2023-04-01T15:25:22;98308.88;;;19.85;51.03
25638;BME280;13496;51.040;13.680;2023-04-01T15:30:52;98319.72;;;19.88;51.01
25638;BME280;13496;51.040;13.680;2023-04-01T15:35:58;98317.78;;;19.83;51.11
25638;BME280;13496;51.040;13.680;2023-04-01T15:41:15;98320.88;;;19.80;51.09
25638;BME280;13496;51.040;13.680;2023-04-01T15:46:44;98328.78;;;19.80;50.58
25638;BME280;13496;51.040;13.680;2023-04-01T15:52:06;98341.38;;;19.78;51.29
25638;BME280;13496;51.040;13.680;2023-04-01T16:02:35;98343.44;;;19.76;51.37
25638;BME280;13496;51.040;13.680;2023-04-01T16:08:01;98343.91;;;19.73;51.09
25638;BME280;13496;51.040;13.680;2023-04-01T16:13:23;98350.28;;;19.77;50.92
25638;BME280;13496;51.040;13.680;2023-04-01T16:23:53;98358.41;;;19.76;51.35
25638;BME280;13496;51.040;13.680;2023-04-01T16:29:10;98366.78;;;19.73;51.68
25638;BME280;13496;51.040;13.680;2023-04-01T16:34:36;98373.06;;;19.72;51.80
25638;BME280;13496;51.040;13.680;2023-04-01T16:39:59;98388.03;;;19.71;51.64
25638;BME280;13496;51.040;13.680;2023-04-01T16:50:25;98395.03;;;19.66;51.92
25638;BME280;13496;51.040;13.680;2023-04-01T17:00:55;98409.84;;;19.60;52.14
25638;BME280;13496;51.040;13.680;2023-04-01T17:11:31;98430.81;;;19.55;52.13
25638;BME280;13496;51.040;13.680;2023-04-01T17:16:51;98436.06;;;19.55;52.31
25638;BME280;13496;51.040;13.680;2023-04-01T17:22:13;98436.25;;;19.53;52.07
25638;BME280;13496;51.040;13.680;2023-04-01T17:27:28;98441.78;;;19.52;52.41
25638;BME280;13496;51.040;13.680;2023-04-01T17:32:45;98444.59;;;19.50;52.22
25638;BME280;13496;51.040;13.680;2023-04-01T17:43:48;98456.84;;;19.45;52.13
25638;BME280;13496;51.040;13.680;2023-04-01T17:54:39;98469.41;;;19.43;52.61
25638;BME280;13496;51.040;13.680;2023-04-01T18:10:31;98478.78;;;19.39;52.49
25638;BME280;13496;51.040;13.680;2023-04-01T18:15:53;98481.41;;;19.39;52.49
25638;BME280;13496;51.040;13.680;2023-04-01T18:21:18;98490.56;;;19.36;52.94
25638;BME280;13496;51.040;13.680;2023-04-01T18:26:29;98496.41;;;19.38;52.45
25638;BME280;13496;51.040;13.680;2023-04-01T18:31:42;98501.09;;;19.36;52.53
25638;BME280;13496;51.040;13.680;2023-04-01T18:36:56;98514.44;;;19.34;52.70
25638;BME280;13496;51.040;13.680;2023-04-01T18:47:30;98512.84;;;19.33;52.78
25638;BME280;13496;51.040;13.680;2023-04-01T18:52:41;98526.81;;;19.34;52.54
25638;BME280;13496;51.040;13.680;2023-04-01T18:57:52;98529.06;;;19.30;52.90
25638;BME280;13496;51.040;13.680;2023-04-01T19:03:15;98536.16;;;19.30;53.13
25638;BME280;13496;51.040;13.680;2023-04-01T19:08:29;98538.44;;;19.26;53.23
25638;BME280;13496;51.040;13.680;2023-04-01T19:19:26;98549.97;;;19.25;53.79
25638;BME280;13496;51.040;13.680;2023-04-01T19:24:41;98549.38;;;19.23;54.03
25638;BME280;13496;51.040;13.680;2023-04-01T19:35:45;98568.81;;;19.22;54.35
25638;BME280;13496;51.040;13.680;2023-04-01T19:41:12;98569.63;;;19.23;54.10
25638;BME280;13496;51.040;13.680;2023-04-01T19:46:49;98570.88;;;19.20;54.02
25638;BME280;13496;51.040;13.680;2023-04-01T19:52:06;98586.44;;;19.22;53.96
25638;BME280;13496;51.040;13.680;2023-04-01T19:57:26;98595.34;;;19.21;54.46
25638;BME280;13496;51.040;13.680;2023-04-01T20:07:44;98607.91;;;19.19;54.13
25638;BME280;13496;51.040;13.680;2023-04-01T20:17:59;98624.91;;;19.16;54.39
25638;BME280;13496;51.040;13.680;2023-04-01T20:33:45;98642.75;;;19.14;54.34
25638;BME280;13496;51.040;13.680;2023-04-01T20:39:18;98642.97;;;19.13;54.16
25638;BME280;13496;51.040;13.680;2023-04-01T20:44:46;98653.47;;;19.13;54.06
25638;BME280;13496;51.040;13.680;2023-04-01T20:50:08;98651.88;;;19.12;54.32
25638;BME280;13496;51.040;13.680;2023-04-01T20:55:30;98659.16;;;19.09;54.30
25638;BME280;13496;51.040;13.680;2023-04-01T21:01:15;98661.78;;;19.09;53.93
25638;BME280;13496;51.040;13.680;2023-04-01T21:27:49;98694.78;;;19.05;54.38
25638;BME280;13496;51.040;13.680;2023-04-01T21:33:16;98705.53;;;19.04;54.07
25638;BME280;13496;51.040;13.680;2023-04-01T21:38:48;98710.00;;;19.03;54.34
25638;BME280;13496;51.040;13.680;2023-04-01T22:05:37;98733.47;;;18.98;54.12
25638;BME280;13496;51.040;13.680;2023-04-01T22:10:53;98741.38;;;18.98;54.27
25638;BME280;13496;51.040;13.680;2023-04-01T22:21:21;98750.50;;;18.96;54.03
25638;BME280;13496;51.040;13.680;2023-04-01T22:26:33;98761.03;;;18.96;54.08
25638;BME280;13496;51.040;13.680;2023-04-01T22:31:44;98762.03;;;18.95;54.21
25638;BME280;13496;51.040;13.680;2023-04-01T22:36:55;98777.22;;;18.93;54.09
25638;BME280;13496;51.040;13.680;2023-04-01T22:52:50;98791.59;;;18.90;54.35
25638;BME280;13496;51.040;13.680;2023-04-01T22:58:15;98798.09;;;18.88;54.43
25638;BME280;13496;51.040;13.680;2023-04-01T23:03:34;98808.38;;;18.89;54.42
25638;BME280;13496;51.040;13.680;2023-04-01T23:19:32;98831.03;;;18.83;54.48
25638;BME280;13496;51.040;13.680;2023-04-01T23:24:48;98831.28;;;18.82;54.17
25638;BME280;13496;51.040;13.680;2023-04-01T23:29:52;98843.59;;;18.81;54.47
25638;BME280;13496;51.040;13.680;2023-04-01T23:34:56;98860.41;;;18.80;54.13
25638;BME280;13496;51.040;13.680;2023-04-01T23:39:58;98868.28;;;18.80;54.12
25638;BME280;13496;51.040;13.680;2023-04-01T23:45:05;98878.19;;;18.78;54.45
25638;BME280;13496;51.040;13.680;2023-04-01T23:50:16;98883.84;;;18.75;54.36
25638;BME280;13496;51.040;13.680;2023-04-01T23:55:25;98894.19;;;18.77;54.59
